sensor_id;sensor_type;location;lat;lon;timestamp;P1;durP1;ratioP1;P2;durP2;ratioP2
20124;SDS011;10223;50.862;4.360;2022-11-15T00:02:14;25.67;;;15.87;;
20124;SDS011;10223;50.862;4.360;2022-11-15T00:04:41;26.47;;;15.97;;
20124;SDS011;10223;50.862;4.360;2022-11-15T00:07:09;24.13;;;15.67;;
20124;SDS011;10223;50.862;4.360;2022-11-15T00:09:36;31.10;;;15.97;;
20124;SDS011;10223;50.862;4.360;2022-11-15T00:12:03;28.70;;;17.40;;
20124;SDS011;10223;50.862;4.360;2022-11-15T00:14:30;28.10;;;16.67;;
20124;SDS011;10223;50.862;4.360;2022-11-15T00:16:57;28.87;;;16.93;;
20124;SDS011;10223;50.862;4.360;2022-11-15T00:19:24;27.93;;;16.87;;
20124;SDS011;10223;50.862;4.360;2022-11-15T00:21:51;30.37;;;17.47;;
20124;SDS011;10223;50.862;4.360;2022-11-15T00:24:19;30.13;;;18.57;;
20124;SDS011;10223;50.862;4.360;2022-11-15T00:26:46;27.63;;;17.00;;
20124;SDS011;10223;50.862;4.360;2022-11-15T00:29:13;31.40;;;17.57;;
20124;SDS011;10223;50.862;4.360;2022-11-15T00:31:40;27.63;;;16.63;;
20124;SDS011;10223;50.862;4.360;2022-11-15T00:34:07;29.13;;;17.70;;
20124;SDS011;10223;50.862;4.360;2022-11-15T00:36:35;31.00;;;16.60;;
20124;SDS011;10223;50.862;4.360;2022-11-15T00:39:03;25.33;;;16.83;;
20124;SDS011;10223;50.862;4.360;2022-11-15T00:41:31;26.83;;;16.60;;
20124;SDS011;10223;50.862;4.360;2022-11-15T00:43:58;26.40;;;16.87;;
20124;SDS011;10223;50.862;4.360;2022-11-15T00:46:25;28.43;;;17.20;;
20124;SDS011;10223;50.862;4.360;2022-11-15T00:48:52;32.53;;;17.27;;
20124;SDS011;10223;50.862;4.360;2022-11-15T00:51:19;29.63;;;16.80;;
20124;SDS011;10223;50.862;4.360;2022-11-15T00:53:45;28.60;;;17.17;;
20124;SDS011;10223;50.862;4.360;2022-11-15T00:56:12;31.83;;;18.37;;
20124;SDS011;10223;50.862;4.360;2022-11-15T00:58:40;32.47;;;18.07;;
20124;SDS011;10223;50.862;4.360;2022-11-15T01:01:08;33.90;;;18.50;;
20124;SDS011;10223;50.862;4.360;2022-11-15T01:03:37;29.33;;;16.90;;
20124;SDS011;10223;50.862;4.360;2022-11-15T01:06:05;32.07;;;17.67;;
20124;SDS011;10223;50.862;4.360;2022-11-15T01:08:33;26.80;;;17.40;;
20124;SDS011;10223;50.862;4.360;2022-11-15T01:11:00;27.67;;;17.80;;
20124;SDS011;10223;50.862;4.360;2022-11-15T01:13:29;32.17;;;18.10;;
20124;SDS011;10223;50.862;4.360;2022-11-15T01:15:58;30.97;;;17.57;;
20124;SDS011;10223;50.862;4.360;2022-11-15T01:18:25;31.80;;;18.47;;
20124;SDS011;10223;50.862;4.360;2022-11-15T01:20:52;30.70;;;18.40;;
20124;SDS011;10223;50.862;4.360;2022-11-15T01:23:19;35.23;;;19.23;;
20124;SDS011;10223;50.862;4.360;2022-11-15T01:25:46;34.10;;;18.97;;
20124;SDS011;10223;50.862;4.360;2022-11-15T01:28:13;30.83;;;17.47;;
20124;SDS011;10223;50.862;4.360;2022-11-15T01:30:40;28.40;;;18.57;;
20124;SDS011;10223;50.862;4.360;2022-11-15T01:33:08;33.13;;;17.77;;
20124;SDS011;10223;50.862;4.360;2022-11-15T01:35:37;30.50;;;18.80;;
20124;SDS011;10223;50.862;4.360;2022-11-15T01:38:06;31.67;;;19.13;;
20124;SDS011;10223;50.862;4.360;2022-11-15T01:40:33;30.80;;;18.17;;
20124;SDS011;10223;50.862;4.360;2022-11-15T01:45:45;30.07;;;17.40;;
20124;SDS011;10223;50.862;4.360;2022-11-15T01:48:19;27.13;;;17.33;;
20124;SDS011;10223;50.862;4.360;2022-11-15T01:50:47;26.27;;;15.73;;
20124;SDS011;10223;50.862;4.360;2022-11-15T01:53:16;25.93;;;16.33;;
20124;SDS011;10223;50.862;4.360;2022-11-15T01:55:45;33.23;;;16.57;;
20124;SDS011;10223;50.862;4.360;2022-11-15T01:58:12;25.30;;;15.80;;
20124;SDS011;10223;50.862;4.360;2022-11-15T02:00:39;27.20;;;15.33;;
20124;SDS011;10223;50.862;4.360;2022-11-15T02:03:06;29.70;;;16.27;;
20124;SDS011;10223;50.862;4.360;2022-11-15T02:05:35;28.77;;;16.40;;
20124;SDS011;10223;50.862;4.360;2022-11-15T02:08:03;29.77;;;15.10;;
20124;SDS011;10223;50.862;4.360;2022-11-15T02:10:31;27.97;;;15.93;;
20124;SDS011;10223;50.862;4.360;2022-11-15T02:12:58;30.17;;;15.70;;
20124;SDS011;10223;50.862;4.360;2022-11-15T02:15:30;27.73;;;15.57;;
20124;SDS011;10223;50.862;4.360;2022-11-15T02:18:07;27.07;;;15.73;;
20124;SDS011;10223;50.862;4.360;2022-11-15T02:20:46;24.37;;;15.27;;
20124;SDS011;10223;50.862;4.360;2022-11-15T02:30:00;26.60;;;15.33;;
20124;SDS011;10223;50.862;4.360;2022-11-15T02:32:40;27.00;;;15.60;;
20124;SDS011;10223;50.862;4.360;2022-11-15T02:35:12;26.70;;;15.13;;
20124;SDS011;10223;50.862;4.360;2022-11-15T02:37:47;24.77;;;15.50;;
20124;SDS011;10223;50.862;4.360;2022-11-15T02:40:23;24.73;;;15.80;;
20124;SDS011;10223;50.862;4.360;2022-11-15T02:43:01;23.03;;;13.93;;
20124;SDS011;10223;50.862;4.360;2022-11-15T02:45:53;25.17;;;16.23;;
20124;SDS011;10223;50.862;4.360;2022-11-15T02:48:27;24.10;;;14.47;;
20124;SDS011;10223;50.862;4.360;2022-11-15T02:50:56;24.73;;;14.80;;
20124;SDS011;10223;50.862;4.360;2022-11-15T02:53:24;25.10;;;14.07;;
20124;SDS011;10223;50.862;4.360;2022-11-15T02:55:51;23.93;;;14.13;;
20124;SDS011;10223;50.862;4.360;2022-11-15T02:58:28;21.27;;;13.80;;
20124;SDS011;10223;50.862;4.360;2022-11-15T03:01:18;23.37;;;13.23;;
20124;SDS011;10223;50.862;4.360;2022-11-15T03:03:55;21.47;;;13.60;;
20124;SDS011;10223;50.862;4.360;2022-11-15T03:06:30;22.67;;;13.70;;
20124;SDS011;10223;50.862;4.360;2022-11-15T03:09:05;23.97;;;13.97;;
20124;SDS011;10223;50.862;4.360;2022-11-15T03:11:39;18.90;;;11.90;;
20124;SDS011;10223;50.862;4.360;2022-11-15T03:14:12;18.17;;;11.83;;
20124;SDS011;10223;50.862;4.360;2022-11-15T03:16:49;16.60;;;10.80;;
20124;SDS011;10223;50.862;4.360;2022-11-15T03:19:23;23.10;;;11.90;;
20124;SDS011;10223;50.862;4.360;2022-11-15T03:21:55;19.13;;;10.77;;
20124;SDS011;10223;50.862;4.360;2022-11-15T03:24:26;19.27;;;10.87;;
20124;SDS011;10223;50.862;4.360;2022-11-15T03:26:59;17.67;;;10.10;;
20124;SDS011;10223;50.862;4.360;2022-11-15T03:29:29;18.13;;;10.00;;
20124;SDS011;10223;50.862;4.360;2022-11-15T03:32:02;18.33;;;9.40;;
20124;SDS011;10223;50.862;4.360;2022-11-15T03:34:34;16.07;;;9.00;;
20124;SDS011;10223;50.862;4.360;2022-11-15T03:37:04;15.77;;;7.67;;
20124;SDS011;10223;50.862;4.360;2022-11-15T03:39:31;16.10;;;9.13;;
20124;SDS011;10223;50.862;4.360;2022-11-15T03:42:02;15.40;;;7.80;;
20124;SDS011;10223;50.862;4.360;2022-11-15T03:44:36;12.90;;;8.27;;
20124;SDS011;10223;50.862;4.360;2022-11-15T03:47:11;16.97;;;7.90;;
20124;SDS011;10223;50.862;4.360;2022-11-15T03:49:42;15.17;;;8.07;;
20124;SDS011;10223;50.862;4.360;2022-11-15T03:52:12;16.70;;;9.03;;
20124;SDS011;10223;50.862;4.360;2022-11-15T03:54:50;15.53;;;7.93;;
20124;SDS011;10223;50.862;4.360;2022-11-15T03:57:18;17.23;;;8.40;;
20124;SDS011;10223;50.862;4.360;2022-11-15T03:59:45;13.90;;;8.67;;
20124;SDS011;10223;50.862;4.360;2022-11-15T04:02:13;16.17;;;8.43;;
20124;SDS011;10223;50.862;4.360;2022-11-15T04:04:40;14.40;;;7.63;;
20124;SDS011;10223;50.862;4.360;2022-11-15T04:07:07;12.83;;;6.83;;
20124;SDS011;10223;50.862;4.360;2022-11-15T04:09:34;12.97;;;7.70;;
20124;SDS011;10223;50.862;4.360;2022-11-15T04:12:22;11.73;;;7.53;;
20124;SDS011;10223;50.862;4.360;2022-11-15T04:14:56;12.90;;;7.00;;
20124;SDS011;10223;50.862;4.360;2022-11-15T04:17:35;11.53;;;6.43;;
20124;SDS011;10223;50.862;4.360;2022-11-15T04:20:07;13.60;;;7.20;;
20124;SDS011;10223;50.862;4.360;2022-11-15T04:22:54;18.00;;;7.27;;
20124;SDS011;10223;50.862;4.360;2022-11-15T04:25:38;11.17;;;6.43;;
20124;SDS011;10223;50.862;4.360;2022-11-15T04:28:05;14.63;;;7.20;;
20124;SDS011;10223;50.862;4.360;2022-11-15T04:30:32;8.50;;;5.23;;
20124;SDS011;10223;50.862;4.360;2022-11-15T04:33:00;8.17;;;5.60;;
20124;SDS011;10223;50.862;4.360;2022-11-15T04:35:27;12.67;;;7.07;;
20124;SDS011;10223;50.862;4.360;2022-11-15T04:37:54;12.30;;;6.10;;
20124;SDS011;10223;50.862;4.360;2022-11-15T04:40:21;18.90;;;6.23;;
20124;SDS011;10223;50.862;4.360;2022-11-15T04:42:48;12.50;;;6.23;;
20124;SDS011;10223;50.862;4.360;2022-11-15T04:45:14;15.30;;;6.67;;
20124;SDS011;10223;50.862;4.360;2022-11-15T04:47:43;12.57;;;5.60;;
20124;SDS011;10223;50.862;4.360;2022-11-15T04:50:12;10.50;;;6.13;;
20124;SDS011;10223;50.862;4.360;2022-11-15T04:52:40;11.50;;;5.50;;
20124;SDS011;10223;50.862;4.360;2022-11-15T04:55:07;8.40;;;5.33;;
20124;SDS011;10223;50.862;4.360;2022-11-15T04:57:35;8.53;;;5.33;;
20124;SDS011;10223;50.862;4.360;2022-11-15T05:00:03;12.13;;;6.30;;
20124;SDS011;10223;50.862;4.360;2022-11-15T05:02:31;13.60;;;5.83;;
20124;SDS011;10223;50.862;4.360;2022-11-15T05:05:13;11.77;;;5.30;;
20124;SDS011;10223;50.862;4.360;2022-11-15T05:07:40;11.10;;;5.17;;
20124;SDS011;10223;50.862;4.360;2022-11-15T05:10:07;11.97;;;5.00;;
20124;SDS011;10223;50.862;4.360;2022-11-15T05:12:34;10.47;;;5.47;;
20124;SDS011;10223;50.862;4.360;2022-11-15T05:15:01;10.50;;;4.90;;
20124;SDS011;10223;50.862;4.360;2022-11-15T05:17:29;16.10;;;5.33;;
20124;SDS011;10223;50.862;4.360;2022-11-15T05:19:56;9.87;;;4.93;;
20124;SDS011;10223;50.862;4.360;2022-11-15T05:22:24;12.57;;;4.67;;
20124;SDS011;10223;50.862;4.360;2022-11-15T05:24:51;10.33;;;4.40;;
20124;SDS011;10223;50.862;4.360;2022-11-15T05:27:18;7.60;;;4.17;;
20124;SDS011;10223;50.862;4.360;2022-11-15T05:29:44;11.77;;;4.30;;
20124;SDS011;10223;50.862;4.360;2022-11-15T05:32:12;8.07;;;4.13;;
20124;SDS011;10223;50.862;4.360;2022-11-15T05:34:39;9.07;;;3.53;;
20124;SDS011;10223;50.862;4.360;2022-11-15T05:37:06;7.83;;;3.90;;
20124;SDS011;10223;50.862;4.360;2022-11-15T05:39:35;12.70;;;3.97;;
20124;SDS011;10223;50.862;4.360;2022-11-15T05:42:04;10.57;;;3.90;;
20124;SDS011;10223;50.862;4.360;2022-11-15T05:44:34;11.77;;;3.97;;
20124;SDS011;10223;50.862;4.360;2022-11-15T05:47:04;13.33;;;3.90;;
20124;SDS011;10223;50.862;4.360;2022-11-15T05:49:35;9.33;;;4.00;;
20124;SDS011;10223;50.862;4.360;2022-11-15T05:52:03;8.00;;;3.70;;
20124;SDS011;10223;50.862;4.360;2022-11-15T05:54:33;12.17;;;4.27;;
20124;SDS011;10223;50.862;4.360;2022-11-15T05:57:03;12.10;;;4.20;;
20124;SDS011;10223;50.862;4.360;2022-11-15T05:59:30;9.17;;;3.83;;
20124;SDS011;10223;50.862;4.360;2022-11-15T06:01:58;9.30;;;3.97;;
20124;SDS011;10223;50.862;4.360;2022-11-15T06:04:25;11.37;;;4.30;;
20124;SDS011;10223;50.862;4.360;2022-11-15T06:06:52;8.60;;;3.97;;
20124;SDS011;10223;50.862;4.360;2022-11-15T06:09:19;7.90;;;4.07;;
20124;SDS011;10223;50.862;4.360;2022-11-15T06:11:47;10.27;;;4.07;;
20124;SDS011;10223;50.862;4.360;2022-11-15T06:14:14;13.03;;;4.63;;
20124;SDS011;10223;50.862;4.360;2022-11-15T06:16:41;12.63;;;4.50;;
20124;SDS011;10223;50.862;4.360;2022-11-15T06:19:09;11.77;;;4.57;;
20124;SDS011;10223;50.862;4.360;2022-11-15T06:21:36;12.73;;;4.10;;
20124;SDS011;10223;50.862;4.360;2022-11-15T06:24:03;7.27;;;4.63;;
20124;SDS011;10223;50.862;4.360;2022-11-15T06:26:31;8.83;;;4.23;;
20124;SDS011;10223;50.862;4.360;2022-11-15T06:29:00;7.33;;;3.53;;
20124;SDS011;10223;50.862;4.360;2022-11-15T06:31:28;17.60;;;4.43;;
20124;SDS011;10223;50.862;4.360;2022-11-15T06:33:56;10.13;;;4.03;;
20124;SDS011;10223;50.862;4.360;2022-11-15T06:36:22;10.13;;;4.10;;
20124;SDS011;10223;50.862;4.360;2022-11-15T06:38:49;8.77;;;3.73;;
20124;SDS011;10223;50.862;4.360;2022-11-15T06:41:16;10.63;;;3.33;;
20124;SDS011;10223;50.862;4.360;2022-11-15T06:43:43;11.93;;;4.23;;
20124;SDS011;10223;50.862;4.360;2022-11-15T06:46:11;10.70;;;3.47;;
20124;SDS011;10223;50.862;4.360;2022-11-15T06:48:38;6.90;;;4.00;;
20124;SDS011;10223;50.862;4.360;2022-11-15T06:51:05;8.33;;;3.47;;
20124;SDS011;10223;50.862;4.360;2022-11-15T06:53:33;9.70;;;4.07;;
20124;SDS011;10223;50.862;4.360;2022-11-15T06:56:00;11.23;;;3.93;;
20124;SDS011;10223;50.862;4.360;2022-11-15T06:58:28;8.47;;;3.50;;
20124;SDS011;10223;50.862;4.360;2022-11-15T07:00:58;10.33;;;3.97;;
20124;SDS011;10223;50.862;4.360;2022-11-15T07:03:26;11.00;;;4.27;;
20124;SDS011;10223;50.862;4.360;2022-11-15T07:05:54;10.13;;;4.03;;
20124;SDS011;10223;50.862;4.360;2022-11-15T07:08:22;9.97;;;3.70;;
20124;SDS011;10223;50.862;4.360;2022-11-15T07:10:50;9.73;;;4.10;;
20124;SDS011;10223;50.862;4.360;2022-11-15T07:13:17;10.80;;;4.13;;
20124;SDS011;10223;50.862;4.360;2022-11-15T07:15:44;10.77;;;3.77;;
20124;SDS011;10223;50.862;4.360;2022-11-15T07:18:11;6.80;;;3.40;;
20124;SDS011;10223;50.862;4.360;2022-11-15T07:20:39;10.23;;;3.37;;
20124;SDS011;10223;50.862;4.360;2022-11-15T07:23:06;7.40;;;3.97;;
20124;SDS011;10223;50.862;4.360;2022-11-15T07:25:33;7.93;;;3.50;;
20124;SDS011;10223;50.862;4.360;2022-11-15T07:28:00;10.33;;;3.60;;
20124;SDS011;10223;50.862;4.360;2022-11-15T07:30:28;10.83;;;3.63;;
20124;SDS011;10223;50.862;4.360;2022-11-15T07:32:55;6.50;;;3.50;;
20124;SDS011;10223;50.862;4.360;2022-11-15T07:35:22;8.60;;;3.47;;
20124;SDS011;10223;50.862;4.360;2022-11-15T07:37:54;9.73;;;4.23;;
20124;SDS011;10223;50.862;4.360;2022-11-15T07:40:22;7.87;;;4.10;;
20124;SDS011;10223;50.862;4.360;2022-11-15T07:42:48;8.13;;;4.10;;
20124;SDS011;10223;50.862;4.360;2022-11-15T07:45:18;9.00;;;3.80;;
20124;SDS011;10223;50.862;4.360;2022-11-15T07:47:45;9.77;;;3.53;;
20124;SDS011;10223;50.862;4.360;2022-11-15T07:50:12;7.23;;;4.10;;
20124;SDS011;10223;50.862;4.360;2022-11-15T07:52:39;7.73;;;3.90;;
20124;SDS011;10223;50.862;4.360;2022-11-15T07:55:08;5.97;;;3.57;;
20124;SDS011;10223;50.862;4.360;2022-11-15T07:57:35;6.87;;;3.23;;
20124;SDS011;10223;50.862;4.360;2022-11-15T08:00:03;7.83;;;3.53;;
20124;SDS011;10223;50.862;4.360;2022-11-15T08:02:31;6.80;;;3.50;;
20124;SDS011;10223;50.862;4.360;2022-11-15T08:04:58;11.00;;;3.63;;
20124;SDS011;10223;50.862;4.360;2022-11-15T08:07:26;8.77;;;3.33;;
20124;SDS011;10223;50.862;4.360;2022-11-15T08:09:55;7.47;;;2.83;;
20124;SDS011;10223;50.862;4.360;2022-11-15T08:12:23;4.57;;;2.40;;
20124;SDS011;10223;50.862;4.360;2022-11-15T08:14:50;5.97;;;2.77;;
20124;SDS011;10223;50.862;4.360;2022-11-15T08:17:19;7.73;;;2.80;;
20124;SDS011;10223;50.862;4.360;2022-11-15T08:19:46;10.30;;;3.20;;
20124;SDS011;10223;50.862;4.360;2022-11-15T08:22:13;6.10;;;2.80;;
20124;SDS011;10223;50.862;4.360;2022-11-15T08:24:40;6.50;;;3.17;;
20124;SDS011;10223;50.862;4.360;2022-11-15T08:27:07;5.27;;;2.63;;
20124;SDS011;10223;50.862;4.360;2022-11-15T08:29:40;7.67;;;2.40;;
20124;SDS011;10223;50.862;4.360;2022-11-15T08:32:08;5.17;;;2.50;;
20124;SDS011;10223;50.862;4.360;2022-11-15T08:34:35;5.10;;;2.43;;
20124;SDS011;10223;50.862;4.360;2022-11-15T08:37:03;8.33;;;2.67;;
20124;SDS011;10223;50.862;4.360;2022-11-15T08:39:29;6.13;;;2.90;;
20124;SDS011;10223;50.862;4.360;2022-11-15T08:41:56;11.33;;;2.43;;
20124;SDS011;10223;50.862;4.360;2022-11-15T08:44:23;6.17;;;2.17;;
20124;SDS011;10223;50.862;4.360;2022-11-15T08:46:54;3.40;;;1.63;;
20124;SDS011;10223;50.862;4.360;2022-11-15T08:49:21;5.63;;;2.10;;
20124;SDS011;10223;50.862;4.360;2022-11-15T08:51:48;12.03;;;3.13;;
20124;SDS011;10223;50.862;4.360;2022-11-15T08:54:15;2.90;;;1.60;;
20124;SDS011;10223;50.862;4.360;2022-11-15T08:56:42;8.60;;;3.67;;
20124;SDS011;10223;50.862;4.360;2022-11-15T08:59:09;10.13;;;4.60;;
20124;SDS011;10223;50.862;4.360;2022-11-15T09:01:36;4.53;;;2.10;;
20124;SDS011;10223;50.862;4.360;2022-11-15T09:04:04;10.27;;;2.70;;
20124;SDS011;10223;50.862;4.360;2022-11-15T09:06:31;9.90;;;2.50;;
20124;SDS011;10223;50.862;4.360;2022-11-15T09:08:58;8.07;;;3.53;;
20124;SDS011;10223;50.862;4.360;2022-11-15T09:11:26;5.57;;;4.00;;
20124;SDS011;10223;50.862;4.360;2022-11-15T09:13:53;14.47;;;3.57;;
20124;SDS011;10223;50.862;4.360;2022-11-15T09:16:20;8.53;;;2.63;;
20124;SDS011;10223;50.862;4.360;2022-11-15T09:18:47;8.37;;;2.53;;
20124;SDS011;10223;50.862;4.360;2022-11-15T09:21:15;8.93;;;1.83;;
20124;SDS011;10223;50.862;4.360;2022-11-15T09:23:42;8.97;;;1.90;;
20124;SDS011;10223;50.862;4.360;2022-11-15T09:26:09;13.37;;;1.80;;
20124;SDS011;10223;50.862;4.360;2022-11-15T09:28:36;8.90;;;2.13;;
20124;SDS011;10223;50.862;4.360;2022-11-15T09:31:07;4.77;;;2.10;;
20124;SDS011;10223;50.862;4.360;2022-11-15T09:33:34;4.07;;;1.53;;
20124;SDS011;10223;50.862;4.360;2022-11-15T09:36:01;15.40;;;2.07;;
20124;SDS011;10223;50.862;4.360;2022-11-15T09:38:30;6.57;;;1.30;;
20124;SDS011;10223;50.862;4.360;2022-11-15T09:41:05;7.10;;;2.00;;
20124;SDS011;10223;50.862;4.360;2022-11-15T09:43:54;5.70;;;2.00;;
20124;SDS011;10223;50.862;4.360;2022-11-15T09:46:31;4.13;;;1.53;;
20124;SDS011;10223;50.862;4.360;2022-11-15T09:49:04;7.20;;;1.40;;
20124;SDS011;10223;50.862;4.360;2022-11-15T09:51:34;9.43;;;1.73;;
20124;SDS011;10223;50.862;4.360;2022-11-15T09:54:13;6.00;;;1.73;;
20124;SDS011;10223;50.862;4.360;2022-11-15T09:56:56;10.77;;;1.83;;
20124;SDS011;10223;50.862;4.360;2022-11-15T09:59:36;5.67;;;1.33;;
20124;SDS011;10223;50.862;4.360;2022-11-15T10:02:17;6.10;;;1.50;;
20124;SDS011;10223;50.862;4.360;2022-11-15T10:04:56;8.90;;;1.60;;
20124;SDS011;10223;50.862;4.360;2022-11-15T10:07:25;6.00;;;1.40;;
20124;SDS011;10223;50.862;4.360;2022-11-15T10:10:00;5.77;;;1.80;;
20124;SDS011;10223;50.862;4.360;2022-11-15T10:12:33;6.17;;;1.70;;
20124;SDS011;10223;50.862;4.360;2022-11-15T10:15:01;7.10;;;1.63;;
20124;SDS011;10223;50.862;4.360;2022-11-15T10:17:36;8.67;;;2.40;;
20124;SDS011;10223;50.862;4.360;2022-11-15T10:20:24;9.13;;;1.33;;
20124;SDS011;10223;50.862;4.360;2022-11-15T10:22:53;4.70;;;1.37;;
20124;SDS011;10223;50.862;4.360;2022-11-15T10:25:24;5.43;;;1.50;;
20124;SDS011;10223;50.862;4.360;2022-11-15T10:27:54;13.90;;;1.97;;
20124;SDS011;10223;50.862;4.360;2022-11-15T10:30:23;7.07;;;1.20;;
20124;SDS011;10223;50.862;4.360;2022-11-15T10:32:56;5.60;;;1.30;;
20124;SDS011;10223;50.862;4.360;2022-11-15T10:35:23;9.20;;;1.50;;
20124;SDS011;10223;50.862;4.360;2022-11-15T10:37:51;7.63;;;1.50;;
20124;SDS011;10223;50.862;4.360;2022-11-15T10:40:31;4.70;;;1.40;;
20124;SDS011;10223;50.862;4.360;2022-11-15T10:43:04;8.70;;;1.40;;
20124;SDS011;10223;50.862;4.360;2022-11-15T10:45:38;5.83;;;1.30;;
20124;SDS011;10223;50.862;4.360;2022-11-15T10:48:23;7.93;;;1.60;;
20124;SDS011;10223;50.862;4.360;2022-11-15T10:50:51;5.63;;;1.47;;
20124;SDS011;10223;50.862;4.360;2022-11-15T10:53:23;6.53;;;1.70;;
20124;SDS011;10223;50.862;4.360;2022-11-15T10:55:57;4.70;;;1.00;;
20124;SDS011;10223;50.862;4.360;2022-11-15T10:58:30;6.57;;;1.27;;
20124;SDS011;10223;50.862;4.360;2022-11-15T11:01:09;5.63;;;1.30;;
20124;SDS011;10223;50.862;4.360;2022-11-15T11:03:38;4.50;;;1.00;;
20124;SDS011;10223;50.862;4.360;2022-11-15T11:06:07;8.43;;;1.63;;
20124;SDS011;10223;50.862;4.360;2022-11-15T11:08:36;8.30;;;1.50;;
20124;SDS011;10223;50.862;4.360;2022-11-15T11:11:04;7.00;;;1.60;;
20124;SDS011;10223;50.862;4.360;2022-11-15T11:13:33;6.60;;;1.30;;
20124;SDS011;10223;50.862;4.360;2022-11-15T11:16:19;8.20;;;1.30;;
20124;SDS011;10223;50.862;4.360;2022-11-15T11:19:02;5.50;;;1.70;;
20124;SDS011;10223;50.862;4.360;2022-11-15T11:21:40;9.03;;;1.23;;
20124;SDS011;10223;50.862;4.360;2022-11-15T11:24:14;10.97;;;1.37;;
20124;SDS011;10223;50.862;4.360;2022-11-15T11:26:55;7.23;;;1.47;;
20124;SDS011;10223;50.862;4.360;2022-11-15T11:29:33;7.10;;;1.60;;
20124;SDS011;10223;50.862;4.360;2022-11-15T11:32:11;7.13;;;1.50;;
20124;SDS011;10223;50.862;4.360;2022-11-15T11:34:50;6.93;;;1.80;;
20124;SDS011;10223;50.862;4.360;2022-11-15T11:37:26;6.90;;;1.33;;
20124;SDS011;10223;50.862;4.360;2022-11-15T11:40:05;5.07;;;1.20;;
20124;SDS011;10223;50.862;4.360;2022-11-15T11:42:44;5.50;;;1.37;;
20124;SDS011;10223;50.862;4.360;2022-11-15T11:45:24;6.17;;;1.60;;
20124;SDS011;10223;50.862;4.360;2022-11-15T11:48:03;6.93;;;1.17;;
20124;SDS011;10223;50.862;4.360;2022-11-15T11:50:38;9.13;;;1.37;;
20124;SDS011;10223;50.862;4.360;2022-11-15T11:53:09;5.00;;;1.20;;
20124;SDS011;10223;50.862;4.360;2022-11-15T11:55:39;9.37;;;1.37;;
20124;SDS011;10223;50.862;4.360;2022-11-15T11:58:12;3.40;;;0.90;;
20124;SDS011;10223;50.862;4.360;2022-11-15T12:00:43;6.23;;;1.40;;
20124;SDS011;10223;50.862;4.360;2022-11-15T12:03:14;8.00;;;1.67;;
20124;SDS011;10223;50.862;4.360;2022-11-15T12:05:48;7.97;;;1.47;;
20124;SDS011;10223;50.862;4.360;2022-11-15T12:08:25;5.80;;;1.40;;
20124;SDS011;10223;50.862;4.360;2022-11-15T12:11:00;5.40;;;1.40;;
20124;SDS011;10223;50.862;4.360;2022-11-15T12:13:34;10.83;;;1.50;;
20124;SDS011;10223;50.862;4.360;2022-11-15T12:16:04;6.97;;;1.60;;
20124;SDS011;10223;50.862;4.360;2022-11-15T12:18:35;5.40;;;1.30;;
20124;SDS011;10223;50.862;4.360;2022-11-15T12:21:04;5.53;;;1.00;;
20124;SDS011;10223;50.862;4.360;2022-11-15T12:23:40;5.37;;;1.37;;
20124;SDS011;10223;50.862;4.360;2022-11-15T12:26:11;4.40;;;1.40;;
20124;SDS011;10223;50.862;4.360;2022-11-15T12:28:45;2.80;;;1.13;;
20124;SDS011;10223;50.862;4.360;2022-11-15T12:31:18;5.80;;;1.43;;
20124;SDS011;10223;50.862;4.360;2022-11-15T12:33:54;3.93;;;0.90;;
20124;SDS011;10223;50.862;4.360;2022-11-15T12:36:30;5.27;;;1.17;;
20124;SDS011;10223;50.862;4.360;2022-11-15T12:39:03;3.77;;;1.10;;
20124;SDS011;10223;50.862;4.360;2022-11-15T12:41:31;6.23;;;0.90;;
20124;SDS011;10223;50.862;4.360;2022-11-15T12:44:01;8.33;;;1.53;;
20124;SDS011;10223;50.862;4.360;2022-11-15T12:49:44;5.10;;;0.97;;
20124;SDS011;10223;50.862;4.360;2022-11-15T12:52:12;2.97;;;1.10;;
20124;SDS011;10223;50.862;4.360;2022-11-15T12:57:44;5.73;;;1.73;;
20124;SDS011;10223;50.862;4.360;2022-11-15T13:03:18;5.80;;;1.33;;
20124;SDS011;10223;50.862;4.360;2022-11-15T13:05:56;3.77;;;1.20;;
20124;SDS011;10223;50.862;4.360;2022-11-15T13:08:35;3.37;;;0.97;;
20124;SDS011;10223;50.862;4.360;2022-11-15T13:17:26;6.50;;;1.10;;
20124;SDS011;10223;50.862;4.360;2022-11-15T13:20:11;6.37;;;1.20;;
20124;SDS011;10223;50.862;4.360;2022-11-15T13:22:58;4.10;;;1.20;;
20124;SDS011;10223;50.862;4.360;2022-11-15T13:25:41;3.70;;;1.27;;
20124;SDS011;10223;50.862;4.360;2022-11-15T13:28:20;2.87;;;1.10;;
20124;SDS011;10223;50.862;4.360;2022-11-15T13:30:52;4.13;;;1.60;;
20124;SDS011;10223;50.862;4.360;2022-11-15T13:33:23;4.20;;;1.23;;
20124;SDS011;10223;50.862;4.360;2022-11-15T13:35:55;2.67;;;1.00;;
20124;SDS011;10223;50.862;4.360;2022-11-15T13:38:25;3.50;;;1.67;;
20124;SDS011;10223;50.862;4.360;2022-11-15T13:40:54;3.10;;;1.00;;
20124;SDS011;10223;50.862;4.360;2022-11-15T13:43:27;5.43;;;1.53;;
20124;SDS011;10223;50.862;4.360;2022-11-15T13:46:06;1.60;;;1.00;;
20124;SDS011;10223;50.862;4.360;2022-11-15T13:48:37;4.13;;;1.00;;
20124;SDS011;10223;50.862;4.360;2022-11-15T13:51:05;4.10;;;1.40;;
20124;SDS011;10223;50.862;4.360;2022-11-15T13:53:36;4.27;;;1.43;;
20124;SDS011;10223;50.862;4.360;2022-11-15T13:56:06;3.27;;;1.20;;
20124;SDS011;10223;50.862;4.360;2022-11-15T13:58:33;3.57;;;1.50;;
20124;SDS011;10223;50.862;4.360;2022-11-15T14:01:08;2.50;;;1.20;;
20124;SDS011;10223;50.862;4.360;2022-11-15T14:03:47;3.00;;;1.17;;
20124;SDS011;10223;50.862;4.360;2022-11-15T14:06:20;4.33;;;1.10;;
20124;SDS011;10223;50.862;4.360;2022-11-15T14:11:59;2.83;;;1.23;;
20124;SDS011;10223;50.862;4.360;2022-11-15T14:14:28;2.30;;;0.97;;
20124;SDS011;10223;50.862;4.360;2022-11-15T14:16:56;3.97;;;1.20;;
20124;SDS011;10223;50.862;4.360;2022-11-15T14:19:38;5.07;;;1.47;;
20124;SDS011;10223;50.862;4.360;2022-11-15T14:30:38;3.20;;;1.40;;
20124;SDS011;10223;50.862;4.360;2022-11-15T14:33:15;3.00;;;1.20;;
20124;SDS011;10223;50.862;4.360;2022-11-15T14:35:47;3.57;;;1.50;;
20124;SDS011;10223;50.862;4.360;2022-11-15T14:38:14;5.80;;;1.70;;
20124;SDS011;10223;50.862;4.360;2022-11-15T14:40:42;3.60;;;1.37;;
20124;SDS011;10223;50.862;4.360;2022-11-15T14:43:09;2.53;;;1.20;;
20124;SDS011;10223;50.862;4.360;2022-11-15T14:45:37;5.00;;;1.37;;
20124;SDS011;10223;50.862;4.360;2022-11-15T14:48:04;5.87;;;1.20;;
20124;SDS011;10223;50.862;4.360;2022-11-15T14:50:31;3.37;;;1.50;;
20124;SDS011;10223;50.862;4.360;2022-11-15T14:53:02;4.40;;;1.40;;
20124;SDS011;10223;50.862;4.360;2022-11-15T14:55:30;5.97;;;1.70;;
20124;SDS011;10223;50.862;4.360;2022-11-15T14:58:00;5.13;;;1.40;;
20124;SDS011;10223;50.862;4.360;2022-11-15T15:00:28;5.03;;;1.50;;
20124;SDS011;10223;50.862;4.360;2022-11-15T15:02:55;3.80;;;1.30;;
20124;SDS011;10223;50.862;4.360;2022-11-15T15:05:23;4.00;;;1.40;;
20124;SDS011;10223;50.862;4.360;2022-11-15T15:07:52;3.97;;;1.73;;
20124;SDS011;10223;50.862;4.360;2022-11-15T15:10:20;2.97;;;1.60;;
20124;SDS011;10223;50.862;4.360;2022-11-15T15:12:47;6.00;;;1.27;;
20124;SDS011;10223;50.862;4.360;2022-11-15T15:17:58;3.67;;;1.20;;
20124;SDS011;10223;50.862;4.360;2022-11-15T15:20:25;4.77;;;1.63;;
20124;SDS011;10223;50.862;4.360;2022-11-15T15:22:52;3.43;;;1.47;;
20124;SDS011;10223;50.862;4.360;2022-11-15T15:25:24;5.37;;;1.50;;
20124;SDS011;10223;50.862;4.360;2022-11-15T15:27:54;3.33;;;1.67;;
20124;SDS011;10223;50.862;4.360;2022-11-15T15:30:21;2.30;;;1.60;;
20124;SDS011;10223;50.862;4.360;2022-11-15T15:32:49;4.87;;;1.70;;
20124;SDS011;10223;50.862;4.360;2022-11-15T15:35:16;2.13;;;1.63;;
20124;SDS011;10223;50.862;4.360;2022-11-15T15:37:44;3.67;;;1.23;;